Time;durP1;ratioP1;P1;durP2;ratioP2;P2;SDS_P1;SDS_P2;PMS_P1;PMS_P2;Temp;Humidity;BMP_temperature;BMP_pressure;BME280_temperature;BME280_humidity;BME280_pressure;Samples;Min_cycle;Max_cycle;Signal;HPM_P1;HPM_P2
2023/09/07 00:00:37;;;;;;;0.00;0.00;;;;;;;21.35;100.00;101869.22;5071618;28;20479;-49
2023/09/07 00:03:04;;;;;;;0.00;0.00;;;;;;;21.30;100.00;101878.13;5072012;28;20044;-46
2023/09/07 00:05:29;;;;;;;0.00;0.00;;;;;;;21.27;100.00;101865.72;5072150;28;20082;-50
2023/09/07 00:07:55;;;;;;;0.00;0.00;;;;;;;21.23;100.00;101859.03;5071580;28;20033;-51
2023/09/07 00:10:21;;;;;;;0.00;0.00;;;;;;;21.20;100.00;101855.91;5072158;28;20040;-51
2023/09/07 00:12:46;;;;;;;0.00;0.00;;;;;;;21.18;100.00;101858.03;5071544;28;20039;-49
2023/09/07 00:15:12;;;;;;;0.00;0.00;;;;;;;21.15;100.00;101856.59;5071825;28;20108;-47
2023/09/07 00:17:37;;;;;;;0.00;0.00;;;;;;;21.13;100.00;101861.44;5070731;28;20028;-46
2023/09/07 00:20:14;;;;;;;0.00;0.00;;;;;;;21.10;100.00;101861.91;5072035;28;20052;-46
2023/09/07 00:22:40;;;;;;;0.00;0.00;;;;;;;21.10;100.00;101861.91;5072916;28;20032;-45
2023/09/07 00:25:06;;;;;;;0.00;0.00;;;;;;;21.05;100.00;101862.59;5072933;28;20572;-47
2023/09/07 00:27:35;;;;;;;0.00;0.00;;;;;;;21.02;100.00;101860.31;5071984;28;20385;-45
2023/09/07 00:30:01;;;;;;;0.00;0.00;;;;;;;21.00;100.00;101864.34;5091897;28;20414;-49
2023/09/07 00:32:26;;;;;;;0.00;0.00;;;;;;;20.98;100.00;101864.56;5075854;28;20016;-45
2023/09/07 00:34:52;;;;;;;0.00;0.00;;;;;;;20.95;100.00;101864.19;5079970;28;20046;-52
2023/09/07 00:37:17;;;;;;;0.00;0.00;;;;;;;20.91;100.00;101868.44;5091050;28;20103;-48
2023/09/07 00:39:42;;;;;;;0.52;0.00;;;;;;;20.90;100.00;101870.31;5077482;28;20112;-48
2023/09/07 00:42:08;;;;;;;0.00;0.00;;;;;;;20.85;100.00;101866.59;5071915;28;20218;-46
2023/09/07 00:44:33;;;;;;;0.00;0.00;;;;;;;20.85;100.00;101870.16;5071397;28;20103;-48
2023/09/07 00:46:58;;;;;;;0.00;0.00;;;;;;;20.83;100.00;101870.41;5090517;28;20062;-51
2023/09/07 00:49:24;;;;;;;0.00;0.00;;;;;;;20.81;100.00;101864.31;5085611;28;20421;-46
2023/09/07 00:51:50;;;;;;;0.00;0.00;;;;;;;20.79;100.00;101865.59;5052896;28;20097;-51
2023/09/07 00:54:16;;;;;;;0.00;0.00;;;;;;;20.73;100.00;101859.13;5070431;28;20083;-47
2023/09/07 00:56:42;;;;;;;0.00;0.00;;;;;;;20.70;100.00;101862.31;5071176;28;20475;-51
2023/09/07 00:59:07;;;;;;;0.00;0.00;;;;;;;20.68;100.00;101861.69;5071292;28;20029;-47
2023/09/07 01:01:33;;;;;;;0.00;0.00;;;;;;;20.65;100.00;101853.94;5070308;28;20103;-49
2023/09/07 01:03:58;;;;;;;0.00;0.00;;;;;;;20.60;100.00;101862.00;5070632;28;20037;-52
2023/09/07 01:06:30;;;;;;;0.00;0.00;;;;;;;20.57;100.00;101854.25;5086994;28;20037;-48
2023/09/07 01:08:57;;;;;;;0.00;0.00;;;;;;;20.54;100.00;101849.22;5051743;28;20398;-48
2023/09/07 01:11:23;;;;;;;0.00;0.00;;;;;;;20.51;100.00;101853.22;5052945;28;20387;-46
2023/09/07 01:13:50;;;;;;;0.00;0.00;;;;;;;20.50;100.00;101847.94;5072689;28;20027;-47
2023/09/07 01:16:15;;;;;;;0.00;0.00;;;;;;;20.48;100.00;101847.31;5072084;28;20256;-46
2023/09/07 01:18:41;;;;;;;0.00;0.00;;;;;;;20.42;100.00;101848.22;5079561;28;20029;-47
2023/09/07 01:21:08;;;;;;;0.00;0.00;;;;;;;20.38;100.00;101848.69;5077086;28;20035;-46
2023/09/07 01:23:36;;;;;;;0.00;0.00;;;;;;;20.33;100.00;101845.78;5073588;28;20036;-46
2023/09/07 01:26:02;;;;;;;0.00;0.00;;;;;;;20.29;100.00;101852.72;5052799;28;20526;-47
2023/09/07 01:28:27;;;;;;;0.00;0.00;;;;;;;20.24;100.00;101846.25;5069902;28;20077;-46
2023/09/07 01:30:52;;;;;;;0.00;0.00;;;;;;;20.18;100.00;101842.53;5071425;28;20036;-47
2023/09/07 01:33:18;;;;;;;0.00;0.00;;;;;;;20.15;100.00;101842.97;5070133;28;20390;-45
2023/09/07 01:35:43;;;;;;;0.00;0.00;;;;;;;20.13;100.00;101842.34;5081273;28;20024;-46
2023/09/07 01:38:09;;;;;;;0.00;0.00;;;;;;;20.09;100.00;101843.84;5089989;28;20070;-46
2023/09/07 01:40:34;;;;;;;0.00;0.00;;;;;;;20.06;100.00;101841.53;5070867;28;20035;-44
2023/09/07 01:42:59;;;;;;;0.00;0.00;;;;;;;20.02;100.00;101848.53;5070390;28;20078;-46
2023/09/07 01:45:25;;;;;;;0.00;0.00;;;;;;;19.97;100.00;101849.19;5081621;28;20020;-48
2023/09/07 01:47:51;;;;;;;0.00;0.00;;;;;;;19.93;100.00;101853.41;5083899;28;20078;-43
2023/09/07 01:50:17;;;;;;;0.00;0.00;;;;;;;19.94;100.00;101849.63;5070415;28;20032;-50
2023/09/07 01:52:43;;;;;;;0.00;0.00;;;;;;;19.93;100.00;101856.13;5052084;28;20029;-48
2023/09/07 01:55:08;;;;;;;0.00;0.00;;;;;;;19.91;100.00;101847.34;5074756;28;20063;-47
2023/09/07 01:57:33;;;;;;;0.00;0.00;;;;;;;19.83;100.00;101844.88;5070097;28;20440;-46
2023/09/07 01:59:59;;;;;;;0.00;0.00;;;;;;;19.78;100.00;101842.78;5069838;28;20032;-45
2023/09/07 02:02:24;;;;;;;0.00;0.00;;;;;;;19.75;100.00;101845.97;5069953;28;20048;-46
2023/09/07 02:04:49;;;;;;;0.00;0.00;;;;;;;19.72;100.00;101854.56;5074896;28;20058;-46
2023/09/07 02:07:15;;;;;;;0.00;0.00;;;;;;;19.71;100.00;101853.72;5061525;28;20036;-48
2023/09/07 02:09:41;;;;;;;0.00;0.00;;;;;;;19.69;100.00;101849.53;5051695;28;20021;-47
2023/09/07 02:12:06;;;;;;;0.00;0.00;;;;;;;19.67;100.00;101857.13;5067247;28;20043;-45
2023/09/07 02:14:32;;;;;;;0.00;0.00;;;;;;;19.61;100.00;101852.50;5070378;28;20024;-48
2023/09/07 02:16:57;;;;;;;0.00;0.00;;;;;;;19.55;100.00;101848.75;5070102;28;20027;-47
2023/09/07 02:19:23;;;;;;;0.00;0.00;;;;;;;19.50;100.00;101854.84;5069790;28;20428;-47
2023/09/07 02:21:49;;;;;;;0.00;0.00;;;;;;;19.47;100.00;101849.00;5069244;28;20056;-46
2023/09/07 02:24:15;;;;;;;0.00;0.00;;;;;;;19.41;100.00;101853.44;5069879;28;20280;-46
2023/09/07 02:26:44;;;;;;;0.00;0.00;;;;;;;19.40;100.00;101851.75;5069161;28;20037;-48
2023/09/07 02:29:11;;;;;;;0.00;0.00;;;;;;;19.37;100.00;101851.34;5070049;28;20638;-45
2023/09/07 02:31:36;;;;;;;0.00;0.00;;;;;;;19.34;100.00;101849.88;5070273;28;20024;-45
2023/09/07 02:34:01;;;;;;;0.00;0.00;;;;;;;19.34;100.00;101851.78;5070022;28;20032;-48
2023/09/07 02:36:28;;;;;;;0.00;0.00;;;;;;;19.32;100.00;101846.53;5073612;28;20039;-48
2023/09/07 02:38:53;;;;;;;0.00;0.00;;;;;;;19.31;100.00;101847.59;5081670;28;20111;-44
2023/09/07 02:41:18;;;;;;;0.00;0.00;;;;;;;19.29;100.00;101850.53;5088159;28;20016;-46
2023/09/07 02:43:44;;;;;;;0.00;0.00;;;;;;;19.27;100.00;101862.69;5084623;28;20028;-47
2023/09/07 02:46:09;;;;;;;0.00;0.00;;;;;;;19.24;100.00;101854.94;5074139;28;20025;-48
2023/09/07 02:48:34;;;;;;;0.00;0.00;;;;;;;19.18;100.00;101858.56;5085469;28;20035;-50
2023/09/07 02:51:00;;;;;;;0.00;0.00;;;;;;;19.17;100.00;101856.84;5077738;28;20108;-48
2023/09/07 02:53:25;;;;;;;0.00;0.00;;;;;;;19.16;100.00;101860.66;5076444;28;20024;-50
2023/09/07 02:55:51;;;;;;;0.00;0.00;;;;;;;19.13;100.00;101861.91;5074281;28;20682;-47
2023/09/07 02:58:16;;;;;;;0.00;0.00;;;;;;;19.10;100.00;101865.06;5083812;28;20107;-46
2023/09/07 03:00:45;;;;;;;0.00;0.00;;;;;;;19.11;100.00;101860.44;5094377;28;20024;-44
2023/09/07 03:03:11;;;;;;;0.00;0.00;;;;;;;19.09;100.00;101863.41;5075344;28;20521;-53
2023/09/07 03:05:41;;;;;;;0.00;0.00;;;;;;;19.04;100.00;101853.13;5079277;28;20108;-44
2023/09/07 03:08:07;;;;;;;0.00;0.00;;;;;;;19.01;100.00;101859.03;5088155;28;20264;-46
2023/09/07 03:10:32;;;;;;;0.00;0.00;;;;;;;19.00;100.00;101861.94;5073041;28;20021;-48
2023/09/07 03:12:58;;;;;;;0.00;0.00;;;;;;;18.98;100.00;101864.88;5075178;28;20036;-46
2023/09/07 03:15:23;;;;;;;0.00;0.00;;;;;;;18.94;100.00;101863.63;5074107;28;20397;-46
2023/09/07 03:17:48;;;;;;;0.00;0.00;;;;;;;18.88;100.00;101867.22;5072532;28;20035;-47
2023/09/07 03:20:14;;;;;;;0.00;0.00;;;;;;;18.82;100.00;101857.16;5073108;28;20028;-46
2023/09/07 03:22:46;;;;;;;0.00;0.00;;;;;;;18.80;100.00;101857.38;5077867;28;20036;-45
2023/09/07 03:25:13;;;;;;;0.00;0.00;;;;;;;18.78;100.00;101858.63;5072523;28;20036;-46
2023/09/07 03:27:38;;;;;;;0.00;0.00;;;;;;;18.75;100.00;101856.34;5077673;28;20031;-47
2023/09/07 03:30:05;;;;;;;0.00;0.00;;;;;;;18.72;100.00;101853.97;5076728;28;20032;-43
2023/09/07 03:32:32;;;;;;;0.00;0.00;;;;;;;18.70;100.00;101856.94;5083713;28;20475;-47
2023/09/07 03:35:04;;;;;;;0.00;0.00;;;;;;;18.72;100.00;101857.56;5073944;28;20039;-46
2023/09/07 03:37:29;;;;;;;0.00;0.00;;;;;;;18.72;100.00;101851.25;5072774;28;20546;-45
2023/09/07 03:39:56;;;;;;;0.00;0.00;;;;;;;18.72;100.00;101860.28;5086979;28;20118;-48
2023/09/07 03:42:21;;;;;;;0.00;0.00;;;;;;;18.74;100.00;101862.78;5078719;28;20037;-42
2023/09/07 03:44:47;;;;;;;0.00;0.00;;;;;;;18.74;100.00;101862.78;5072026;28;20051;-47
2023/09/07 03:47:13;;;;;;;0.00;0.00;;;;;;;18.73;100.00;101863.84;5072768;28;20070;-45
2023/09/07 03:49:39;;;;;;;0.00;0.00;;;;;;;18.72;100.00;101864.88;5072465;28;20029;-48
2023/09/07 03:52:04;;;;;;;0.00;0.00;;;;;;;18.70;100.00;101869.72;5072019;28;20344;-45
2023/09/07 03:54:31;;;;;;;0.00;0.00;;;;;;;18.67;100.00;101864.69;5071687;28;20107;-47
2023/09/07 03:56:57;;;;;;;0.00;0.00;;;;;;;18.64;100.00;101868.66;5071802;28;20016;-46
2023/09/07 03:59:22;;;;;;;0.00;0.00;;;;;;;18.64;100.00;101866.81;5072235;28;20509;-44
2023/09/07 04:01:48;;;;;;;0.00;0.00;;;;;;;18.63;100.00;101867.81;5072150;28;20032;-46
2023/09/07 04:04:13;;;;;;;0.00;0.00;;;;;;;18.61;100.00;101872.66;5054092;28;20090;-44
2023/09/07 04:06:38;;;;;;;0.00;0.00;;;;;;;18.60;100.00;101870.97;5071907;28;20115;-50
2023/09/07 04:09:04;;;;;;;0.00;0.00;;;;;;;18.61;100.00;101875.38;5072531;28;20056;-48
2023/09/07 04:11:29;;;;;;;0.00;0.00;;;;;;;18.59;100.00;101872.03;5072091;28;20063;-49
2023/09/07 04:13:55;;;;;;;0.00;0.00;;;;;;;18.57;100.00;101873.31;5073138;28;20366;-47
2023/09/07 04:16:20;;;;;;;0.00;0.00;;;;;;;18.57;100.00;101874.13;5070416;28;20032;-45
2023/09/07 04:18:45;;;;;;;0.00;0.00;;;;;;;18.56;100.00;101877.06;5071201;28;20027;-45
2023/09/07 04:21:11;;;;;;;0.00;0.00;;;;;;;18.53;100.00;101875.59;5081658;28;20020;-48
2023/09/07 04:23:36;;;;;;;0.00;0.00;;;;;;;18.52;100.00;101879.38;5072195;28;20028;-49
2023/09/07 04:26:09;;;;;;;0.00;0.00;;;;;;;18.50;100.00;101872.44;5077907;28;20391;-46
2023/09/07 04:28:35;;;;;;;0.00;0.00;;;;;;;18.48;100.00;101869.91;5073025;28;20268;-48
2023/09/07 04:31:01;;;;;;;0.00;0.00;;;;;;;18.44;100.00;101871.41;5084655;28;20024;-49
2023/09/07 04:33:30;;;;;;;0.00;0.00;;;;;;;18.42;100.00;101870.78;5082455;28;20099;-49
2023/09/07 04:35:55;;;;;;;0.00;0.00;;;;;;;18.40;100.00;101878.31;5072779;28;20036;-44
2023/09/07 04:38:20;;;;;;;0.00;0.00;;;;;;;18.39;100.00;101876.66;5073909;28;20056;-50
2023/09/07 04:40:46;;;;;;;0.00;0.00;;;;;;;18.37;100.00;101882.28;5072750;28;20512;-49
2023/09/07 04:43:11;;;;;;;0.00;0.00;;;;;;;18.39;100.00;101885.66;5072811;28;20032;-45
2023/09/07 04:45:36;;;;;;;0.00;0.00;;;;;;;18.40;100.00;101878.31;5082934;28;20112;-44
2023/09/07 04:48:02;;;;;;;0.00;0.00;;;;;;;18.40;100.00;101886.47;5070527;28;20035;-47
2023/09/07 04:50:27;;;;;;;0.00;0.00;;;;;;;18.41;100.00;101889.03;5082260;28;20499;-47
2023/09/07 04:52:52;;;;;;;0.00;0.00;;;;;;;18.42;100.00;101889.84;5070518;28;20031;-45
2023/09/07 04:55:18;;;;;;;0.00;0.00;;;;;;;18.40;100.00;101891.94;5076278;28;20059;-45
2023/09/07 04:57:43;;;;;;;0.00;0.00;;;;;;;18.41;100.00;101885.47;5076403;28;20040;-50
2023/09/07 05:00:09;;;;;;;0.00;0.00;;;;;;;18.32;100.00;101887.53;5071945;28;20110;-48
2023/09/07 05:02:40;;;;;;;0.00;0.00;;;;;;;18.29;100.00;101889.84;5074249;28;20056;-50
2023/09/07 05:05:06;;;;;;;0.00;0.00;;;;;;;18.25;100.00;101897.59;5070252;28;20103;-48
2023/09/07 05:07:31;;;;;;;0.00;0.00;;;;;;;18.25;100.00;101904.94;5071379;28;20585;-45
2023/09/07 05:09:56;;;;;;;0.00;0.00;;;;;;;18.26;100.00;101903.88;5071007;28;20082;-49
2023/09/07 05:12:22;;;;;;;0.00;0.00;;;;;;;18.28;100.00;101907.25;5071625;28;20028;-48
2023/09/07 05:14:47;;;;;;;0.00;0.00;;;;;;;18.29;100.00;101903.47;5071046;28;20514;-47
2023/09/07 05:17:12;;;;;;;0.00;0.00;;;;;;;18.30;100.00;101900.53;5071011;28;20020;-46
2023/09/07 05:19:38;;;;;;;0.00;0.00;;;;;;;18.32;100.00;101903.03;5071412;28;20055;-49
2023/09/07 05:22:03;;;;;;;0.00;0.00;;;;;;;18.31;100.00;101894.03;5066841;28;20493;-49
2023/09/07 05:24:28;;;;;;;0.00;0.00;;;;;;;18.34;100.00;101898.22;5069827;28;20371;-47
2023/09/07 05:26:54;;;;;;;0.00;0.00;;;;;;;18.36;100.00;101904.31;5072149;28;20107;-48
2023/09/07 05:29:21;;;;;;;0.00;0.00;;;;;;;18.36;100.00;101904.31;5082355;28;20052;-49
2023/09/07 05:31:47;;;;;;;0.00;0.00;;;;;;;18.39;100.00;101903.91;5070030;28;20438;-50
2023/09/07 05:34:12;;;;;;;0.00;0.00;;;;;;;18.46;100.00;101907.47;5070588;28;20024;-48
2023/09/07 05:36:37;;;;;;;0.00;0.00;;;;;;;18.56;100.00;101909.78;5089238;28;20028;-48
2023/09/07 05:39:03;;;;;;;0.00;0.00;;;;;;;18.89;100.00;101912.53;5076909;28;20032;-48
2023/09/07 05:41:29;;;;;;;0.00;0.00;;;;;;;19.39;100.00;101909.31;5063821;28;20032;-45
2023/09/07 05:43:54;;;;;;;0.00;0.00;;;;;;;20.04;100.00;101903.81;5071025;28;20056;-46
2023/09/07 05:46:20;;;;;;;0.00;0.00;;;;;;;20.74;100.00;101901.81;5069889;28;20075;-49
2023/09/07 05:48:45;;;;;;;0.00;0.00;;;;;;;21.57;100.00;101894.28;5071689;28;20135;-46
2023/09/07 05:51:11;;;;;;;0.00;0.00;;;;;;;22.28;100.00;101871.56;5069635;28;20043;-50
2023/09/07 05:53:36;;;;;;;0.00;0.00;;;;;;;22.81;100.00;101861.63;5070114;28;20021;-50
2023/09/07 05:56:01;;;;;;;0.00;0.00;;;;;;;23.45;100.00;101862.50;5052532;28;20036;-48
2023/09/07 05:58:27;;;;;;;0.00;0.00;;;;;;;24.08;100.00;101859.88;5071491;28;20021;-48
2023/09/07 06:00:52;;;;;;;0.00;0.00;;;;;;;24.70;100.00;101857.09;5069831;28;20031;-48
2023/09/07 06:03:18;;;;;;;0.00;0.00;;;;;;;25.10;100.00;101861.50;5069265;28;20487;-48
2023/09/07 06:05:44;;;;;;;0.00;0.00;;;;;;;25.25;100.00;101855.41;5069066;28;20124;-47
2023/09/07 06:08:09;;;;;;;0.00;0.00;;;;;;;24.73;100.00;101866.78;5070131;28;20364;-47
2023/09/07 06:10:35;;;;;;;0.00;0.00;;;;;;;24.06;100.00;101865.59;5076788;28;20097;-48
2023/09/07 06:13:00;;;;;;;0.00;0.00;;;;;;;23.36;100.00;101872.19;5070013;28;20495;-48
2023/09/07 06:15:27;;;;;;;0.00;0.00;;;;;;;22.74;100.00;101871.88;5071626;28;20070;-48
2023/09/07 06:17:52;;;;;;;0.00;0.00;;;;;;;22.25;100.00;101876.69;5074227;28;20166;-46
2023/09/07 06:20:19;;;;;;;0.00;0.00;;;;;;;21.91;100.00;101885.38;5085198;28;20028;-49
2023/09/07 06:22:45;;;;;;;0.00;0.00;;;;;;;21.50;100.00;101882.56;5074442;28;20036;-49
2023/09/07 06:25:10;;;;;;;0.00;0.00;;;;;;;21.33;100.00;101885.03;5075700;28;20025;-47
2023/09/07 06:27:36;;;;;;;0.00;0.00;;;;;;;21.15;100.00;101883.97;5075536;28;20162;-47
2023/09/07 06:30:02;;;;;;;0.00;0.00;;;;;;;21.04;100.00;101882.81;5074722;28;20083;-48
2023/09/07 06:32:28;;;;;;;0.00;0.00;;;;;;;20.87;100.00;101892.66;5060945;28;20029;-48
2023/09/07 06:34:53;;;;;;;0.00;0.00;;;;;;;20.78;100.00;101892.13;5061369;28;20031;-47
2023/09/07 06:37:18;;;;;;;0.00;0.00;;;;;;;20.73;100.00;101889.22;5075475;28;20024;-48
2023/09/07 06:39:44;;;;;;;0.00;0.00;;;;;;;20.75;100.00;101897.22;5075435;28;20038;-49
2023/09/07 06:42:12;;;;;;;0.00;0.00;;;;;;;20.81;100.00;101896.31;5056885;28;20059;-48
2023/09/07 06:44:37;;;;;;;0.00;0.00;;;;;;;21.01;100.00;101896.97;5074212;28;20514;-47
2023/09/07 06:47:03;;;;;;;0.00;0.00;;;;;;;21.67;100.00;101884.44;5072340;28;20048;-48
2023/09/07 06:49:29;;;;;;;0.00;0.00;;;;;;;22.70;100.00;101882.50;5038607;28;20032;-47
2023/09/07 06:51:56;;;;;;;0.00;0.00;;;;;;;23.53;100.00;101880.50;5065133;28;20025;-49
2023/09/07 06:54:21;;;;;;;0.00;0.00;;;;;;;24.75;100.00;101881.13;5069074;28;20027;-50
2023/09/07 06:56:46;;;;;;;0.00;0.00;;;;;;;25.69;100.00;101879.34;5068357;28;20024;-46
2023/09/07 06:59:12;;;;;;;0.00;0.00;;;;;;;26.82;100.00;101872.97;5066762;28;20116;-48
2023/09/07 07:01:37;;;;;;;0.00;0.00;;;;;;;27.35;100.00;101874.69;5067799;28;20159;-49
2023/09/07 07:04:03;;;;;;;0.00;0.00;;;;;;;28.11;100.00;101883.50;5065541;28;20345;-46
2023/09/07 07:06:28;;;;;;;0.00;0.00;;;;;;;28.61;100.00;101879.09;5050965;28;20037;-47
2023/09/07 07:08:53;;;;;;;0.00;0.00;;;;;;;29.16;99.28;101882.09;5068006;28;20505;-51
2023/09/07 07:11:19;;;;;;;0.00;0.00;;;;;;;29.84;94.97;101887.91;5064727;28;20037;-51
2023/09/07 07:13:44;;;;;;;0.00;0.00;;;;;;;30.21;93.23;101888.47;5069706;28;20100;-50
2023/09/07 07:16:10;;;;;;;0.00;0.00;;;;;;;30.70;91.20;101884.75;5067428;28;20398;-47
2023/09/07 07:18:35;;;;;;;0.00;0.00;;;;;;;30.69;91.22;101881.13;5065479;28;20918;-47
2023/09/07 07:21:01;;;;;;;0.00;0.00;;;;;;;30.66;92.72;101875.34;5065775;28;20028;-46
2023/09/07 07:23:26;;;;;;;0.00;0.00;;;;;;;31.83;85.00;101873.13;5065045;28;20028;-49
2023/09/07 07:25:52;;;;;;;0.00;0.00;;;;;;;32.12;82.22;101865.47;5068216;28;20032;-52
2023/09/07 07:28:17;;;;;;;0.00;0.00;;;;;;;32.30;81.68;101869.34;5067523;28;20028;-47
2023/09/07 07:30:42;;;;;;;0.00;0.00;;;;;;;31.79;81.74;101872.09;5070788;28;20039;-48
2023/09/07 07:33:09;;;;;;;0.00;0.00;;;;;;;31.68;82.05;101866.66;5051783;28;20060;-49
2023/09/07 07:35:35;;;;;;;0.00;0.00;;;;;;;32.27;80.62;101869.13;5067061;28;20130;-47
2023/09/07 07:38:01;;;;;;;0.00;0.00;;;;;;;32.18;80.04;101869.00;5066986;28;20035;-48
2023/09/07 07:40:26;;;;;;;0.00;0.00;;;;;;;31.39;81.78;101866.78;5066569;28;20024;-47
2023/09/07 07:42:52;;;;;;;0.00;0.00;;;;;;;32.12;80.75;101859.91;5066588;28;20044;-51
2023/09/07 07:45:21;;;;;;;0.00;0.00;;;;;;;32.65;79.70;101866.25;5066481;28;20383;-48
2023/09/07 07:47:48;;;;;;;0.00;0.00;;;;;;;31.86;79.76;101861.38;5066241;28;20070;-47
2023/09/07 07:50:14;;;;;;;0.00;0.00;;;;;;;32.51;77.29;101858.69;5066137;28;20078;-49
2023/09/07 07:52:40;;;;;;;0.00;0.00;;;;;;;32.49;77.33;101861.00;5046556;28;20087;-50
2023/09/07 07:55:06;;;;;;;0.00;0.00;;;;;;;33.83;71.39;101861.88;5067442;28;20097;-49
2023/09/07 07:57:32;;;;;;;0.00;0.00;;;;;;;33.75;71.18;101863.47;5066166;28;20044;-49
2023/09/07 07:59:57;;;;;;;0.00;0.00;;;;;;;33.39;68.63;101858.66;5066493;28;20332;-49
2023/09/07 08:02:22;;;;;;;0.00;0.00;;;;;;;33.31;70.95;101850.19;5065093;28;20087;-48
2023/09/07 08:04:48;;;;;;;0.00;0.00;;;;;;;33.48;72.83;101861.53;5065697;28;20440;-47
2023/09/07 08:07:13;;;;;;;0.00;0.00;;;;;;;33.39;73.12;101857.84;5065525;28;20038;-51
2023/09/07 08:09:39;;;;;;;0.00;0.00;;;;;;;34.01;68.36;101863.69;5065559;28;20062;-47
2023/09/07 08:12:05;;;;;;;0.00;0.00;;;;;;;33.54;68.96;101865.06;5063913;28;20039;-46
2023/09/07 08:14:30;;;;;;;;;;;;;;;33.93;67.38;101861.66;5067550;28;20037;-48
2023/09/07 08:16:56;;;;;;;0.00;0.00;;;;;;;32.45;71.62;101862.69;5064090;28;19912;-48
2023/09/07 08:19:22;;;;;;;0.00;0.00;;;;;;;32.50;72.06;101859.03;5065151;28;20279;-47
2023/09/07 08:21:47;;;;;;;0.00;0.00;;;;;;;33.55;70.38;101855.56;5049080;28;20017;-44
2023/09/07 08:24:13;;;;;;;0.00;0.00;;;;;;;33.22;72.27;101858.47;5064856;28;20040;-44
2023/09/07 08:26:39;;;;;;;0.00;0.00;;;;;;;33.66;72.82;101852.22;5067998;28;20064;-44
2023/09/07 08:29:05;;;;;;;0.00;0.00;;;;;;;34.29;67.27;101847.66;5064781;28;20032;-46
2023/09/07 08:31:38;;;;;;;0.00;0.00;;;;;;;34.92;65.41;101842.09;5065062;28;20785;-45
2023/09/07 08:34:05;;;;;;;0.00;0.00;;;;;;;35.09;63.56;101846.94;5067611;28;20063;-48
2023/09/07 08:36:34;;;;;;;0.00;0.00;;;;;;;34.91;62.63;101854.41;5066544;28;20044;-48
2023/09/07 08:39:05;;;;;;;0.00;0.00;;;;;;;34.91;62.00;101834.81;5067448;28;20453;-46
2023/09/07 08:41:32;;;;;;;0.00;0.00;;;;;;;34.14;64.52;101841.63;5069499;28;20078;-48
2023/09/07 08:43:59;;;;;;;0.00;0.00;;;;;;;33.58;68.33;101838.19;5065848;28;20170;-48
2023/09/07 08:46:25;;;;;;;0.00;0.00;;;;;;;34.23;65.39;101854.53;5049186;28;20028;-50
2023/09/07 08:48:51;;;;;;;0.00;0.00;;;;;;;34.40;64.33;101837.03;5047984;28;20032;-48
2023/09/07 08:51:18;;;;;;;0.00;0.00;;;;;;;34.39;67.34;101840.13;5066640;28;20108;-46
2023/09/07 08:53:46;;;;;;;0.00;0.00;;;;;;;33.76;66.22;101837.22;5066370;28;20036;-49
2023/09/07 08:56:12;;;;;;;0.00;0.00;;;;;;;33.58;66.98;101832.63;5048948;28;20040;-48
2023/09/07 08:58:37;;;;;;;0.00;0.00;;;;;;;33.61;67.96;101837.56;5067851;28;20068;-44
2023/09/07 09:01:10;;;;;;;0.00;0.00;;;;;;;33.27;69.66;101832.44;5126208;27;20402;-47
2023/09/07 09:03:36;;;;;;;0.00;0.00;;;;;;;33.21;69.55;101829.75;5125358;27;20054;-46
2023/09/07 09:06:03;;;;;;;0.00;0.00;;;;;;;33.79;68.50;101830.16;5125759;27;20409;-47
2023/09/07 09:08:28;;;;;;;0.00;0.00;;;;;;;35.00;65.87;101823.69;5124895;27;20034;-48
2023/09/07 09:11:03;;;;;;;0.00;0.00;;;;;;;35.11;63.50;101825.88;5127208;27;20027;-45
2023/09/07 09:13:32;;;;;;;0.00;0.00;;;;;;;34.44;65.22;101831.63;5125756;27;20058;-47
2023/09/07 09:16:01;;;;;;;0.00;0.00;;;;;;;34.40;66.71;101830.63;5125421;27;20031;-47
2023/09/07 09:18:27;;;;;;;0.00;0.00;;;;;;;35.35;61.05;101836.63;5125837;27;21002;-47
2023/09/07 09:20:54;;;;;;;0.00;0.00;;;;;;;34.94;62.27;101834.16;5126795;27;20036;-51
2023/09/07 09:23:20;;;;;;;0.00;0.00;;;;;;;34.22;65.74;101829.69;5126347;27;20050;-47
2023/09/07 09:25:45;;;;;;;0.00;0.00;;;;;;;35.61;60.53;101833.88;5124680;27;20032;-50
2023/09/07 09:28:10;;;;;;;0.00;0.00;;;;;;;36.12;57.68;101834.19;5124333;27;20047;-47
2023/09/07 09:30:37;;;;;;;0.00;0.00;;;;;;;35.53;58.93;101831.88;5122221;27;20035;-47
2023/09/07 09:33:05;;;;;;;0.00;0.00;;;;;;;35.61;58.94;101825.47;5122252;27;20027;-50
2023/09/07 09:35:31;;;;;;;0.00;0.00;;;;;;;35.31;59.54;101826.41;5120417;28;20553;-47
2023/09/07 09:38:01;;;;;;;0.00;0.00;;;;;;;34.79;61.30;101826.25;5122144;27;20031;-47
2023/09/07 09:40:26;;;;;;;0.00;0.00;;;;;;;33.95;62.24;101830.63;5121008;27;20031;-44
2023/09/07 09:42:52;;;;;;;0.00;0.00;;;;;;;33.99;64.70;101826.84;5121921;27;20485;-46
2023/09/07 09:45:18;;;;;;;0.00;0.00;;;;;;;34.36;63.62;101829.59;5122833;28;20549;-50
2023/09/07 09:47:43;;;;;;;;;;;;;;;33.61;64.60;101832.81;5121295;27;20034;-47
2023/09/07 09:50:11;;;;;;;0.00;0.00;;;;;;;32.26;68.08;101829.31;5121342;27;19915;-49
2023/09/07 09:52:37;;;;;;;0.00;0.00;;;;;;;30.95;73.53;101820.56;5120508;27;20452;-48
2023/09/07 09:55:06;;;;;;;0.05;0.00;;;;;;;31.03;77.75;101813.53;5121387;27;20033;-47
2023/09/07 09:57:32;;;;;;;0.00;0.00;;;;;;;30.80;77.94;101813.19;5117318;28;20028;-50
2023/09/07 09:59:59;;;;;;;0.00;0.00;;;;;;;30.37;82.45;101813.09;5122120;27;20074;-52
2023/09/07 10:02:25;;;;;;;0.00;0.00;;;;;;;29.89;82.72;101821.25;5112804;27;20127;-47
2023/09/07 10:04:51;;;;;;;0.00;0.00;;;;;;;29.68;83.49;101814.19;5119159;28;20503;-47
2023/09/07 10:07:18;;;;;;;0.00;0.00;;;;;;;29.43;84.78;101813.19;5120462;28;20020;-48
2023/09/07 10:09:44;;;;;;;0.00;0.00;;;;;;;29.30;87.41;101811.03;5122786;27;20062;-47
2023/09/07 10:12:12;;;;;;;0.00;0.00;;;;;;;29.19;86.34;101815.81;5109537;27;20517;-45
2023/09/07 10:14:39;;;;;;;0.00;0.00;;;;;;;28.95;89.32;101812.81;5107487;28;20038;-46
2023/09/07 10:17:04;;;;;;;0.00;0.00;;;;;;;28.84;89.78;101803.72;5108204;28;20035;-48
2023/09/07 10:19:29;;;;;;;0.00;0.00;;;;;;;28.70;92.27;101813.75;5107879;27;20030;-50
2023/09/07 10:21:57;;;;;;;0.00;0.00;;;;;;;28.72;92.64;101814.25;5105089;28;20412;-49
2023/09/07 10:24:27;;;;;;;0.00;0.00;;;;;;;28.68;93.16;101810.41;5106402;28;20023;-48
2023/09/07 10:26:59;;;;;;;0.00;0.00;;;;;;;28.39;93.22;101810.97;5108584;27;20508;-48
2023/09/07 10:29:25;;;;;;;0.00;0.00;;;;;;;28.38;92.29;101797.41;5105372;28;20547;-48
2023/09/07 10:31:51;;;;;;;0.00;0.00;;;;;;;28.39;91.25;101802.69;5107450;28;20035;-49
2023/09/07 10:34:17;;;;;;;0.00;0.00;;;;;;;28.34;90.56;101801.84;5107637;27;20024;-50
2023/09/07 10:36:42;;;;;;;0.00;0.00;;;;;;;28.37;90.33;101798.53;5107335;28;20031;-47
2023/09/07 10:39:08;;;;;;;0.00;0.00;;;;;;;28.34;91.25;101804.63;5108041;28;20662;-48
2023/09/07 10:41:44;;;;;;;0.00;0.00;;;;;;;28.44;92.01;101801.88;5108063;28;20080;-47
2023/09/07 10:44:13;;;;;;;0.00;0.00;;;;;;;28.30;90.89;101800.75;5108451;28;20024;-48
2023/09/07 10:46:40;;;;;;;0.00;0.00;;;;;;;28.30;89.32;101800.75;5107389;28;20035;-48
2023/09/07 10:49:11;;;;;;;0.00;0.00;;;;;;;28.19;88.48;101806.28;5105980;27;20051;-48
2023/09/07 10:51:43;;;;;;;0.00;0.00;;;;;;;28.36;88.72;101800.47;5105324;28;20040;-48
2023/09/07 10:54:22;;;;;;;0.00;0.00;;;;;;;28.53;87.48;101797.41;5106984;28;20149;-48
2023/09/07 10:56:49;;;;;;;0.00;0.00;;;;;;;28.29;88.96;101799.09;5106599;28;20024;-47
2023/09/07 10:59:14;;;;;;;0.00;0.00;;;;;;;28.26;89.45;101785.81;5107058;28;20043;-48
2023/09/07 11:01:40;;;;;;;0.00;0.00;;;;;;;28.70;86.13;101786.03;5103515;27;20518;-45
2023/09/07 11:04:08;;;;;;;0.00;0.00;;;;;;;28.95;84.27;101782.34;5107878;28;20063;-47
2023/09/07 11:06:33;;;;;;;;;;;;;;;29.08;83.12;101778.97;5108042;27;20474;-45
2023/09/07 11:09:04;;;;;;;0.00;0.00;;;;;;;29.61;83.37;101774.81;5106279;28;20270;-47
2023/09/07 11:11:31;;;;;;;0.00;0.00;;;;;;;29.88;80.81;101775.19;5106642;27;20023;-50
2023/09/07 11:13:57;;;;;;;0.00;0.00;;;;;;;30.73;79.32;101768.28;5106775;28;20031;-47
2023/09/07 11:16:24;;;;;;;0.00;0.00;;;;;;;31.12;75.85;101775.59;5109252;27;20035;-48